Terminal Aerodrome Forecast
Issued by NWS Charleston, WV

Home | Current Version | Previous Version | Text Only | Print | Product List | Glossary On
Versions: 1 2 3 4 5 6 7 8 9 10 11 12 13 14 15 16 17 18 19 20 21
000
FTUS41 KRLX 281720
TAFHTS
TAF
KHTS 281720Z 2818/2918 21006KT P6SM BKN040
     FM282000 21006KT P6SM VCTS BKN040CB
     FM282300 VRB03KT P6SM SCT150
     FM290800 00000KT P6SM BKN110
     FM291500 22005KT P6SM BKN035=

USA.gov is the U.S. government's official web portal to all federal, state and local government web resources and services.